Time;durP1;ratioP1;P1;durP2;ratioP2;P2;SDS_P1;SDS_P2;PMS_P1;PMS_P2;Temp;Humidity;BMP_temperature;BMP_pressure;BME280_temperature;BME280_humidity;BME280_pressure;Samples;Min_cycle;Max_cycle;Signal;HPM_P1;HPM_P2
2024/01/23 00:00:16;;;;;;;12.65;2.30;;;;;;;12.92;44.84;100845.53;677042;29;1224;-85
2024/01/23 00:00:40;;;;;;;11.32;2.45;;;;;;;12.89;44.83;100857.72;679512;29;1522;-85
2024/01/23 00:01:03;;;;;;;9.15;2.08;;;;;;;12.85;44.92;100868.09;679793;29;1226;-85
2024/01/23 00:01:24;;;;;;;13.13;2.00;;;;;;;12.93;45.01;100857.78;674560;29;1373;-85
2024/01/23 00:01:44;;;;;;;14.10;2.50;;;;;;;12.82;45.00;100871.53;672860;29;1559;-84
2024/01/23 00:02:05;;;;;;;13.18;2.50;;;;;;;12.77;44.99;100867.06;679746;29;1160;-83
2024/01/23 00:02:26;;;;;;;8.93;2.90;;;;;;;12.73;45.19;100876.59;679795;29;979;-84
2024/01/23 00:02:46;;;;;;;8.50;2.90;;;;;;;12.71;45.59;100862.56;679560;29;1577;-85
2024/01/23 00:03:07;;;;;;;8.00;3.10;;;;;;;12.78;45.43;100863.59;677769;29;1099;-85
2024/01/23 00:03:29;;;;;;;9.33;2.23;;;;;;;12.87;45.14;100869.91;677208;29;1676;-85
2024/01/23 00:03:50;;;;;;;10.63;2.38;;;;;;;12.81;45.53;100864.53;679548;29;1526;-85
2024/01/23 00:04:11;;;;;;;13.93;2.50;;;;;;;12.99;45.09;100873.66;679807;29;1213;-84
2024/01/23 00:04:32;;;;;;;10.70;2.57;;;;;;;12.93;45.23;100882.28;679757;29;1087;-85
2024/01/23 00:04:56;;;;;;;9.77;2.58;;;;;;;12.89;45.17;100852.47;676696;29;832;-84
2024/01/23 00:05:17;;;;;;;10.50;2.72;;;;;;;12.95;45.04;100866.56;674630;29;927;-84
2024/01/23 00:05:37;;;;;;;14.48;3.00;;;;;;;12.92;44.84;100876.97;671760;29;1469;-85
2024/01/23 00:05:58;;;;;;;15.07;3.20;;;;;;;12.88;45.31;100870.78;674570;29;1087;-85
2024/01/23 00:06:18;;;;;;;11.82;3.10;;;;;;;12.87;45.17;100877.78;677267;29;1075;-84
2024/01/23 00:06:40;;;;;;;7.25;2.75;;;;;;;12.65;45.93;100892.13;676955;29;1547;-84
2024/01/23 00:07:00;;;;;;;4.68;2.05;;;;;;;12.69;45.20;100875.66;677204;29;1669;-84
2024/01/23 00:07:21;;;;;;;4.70;2.08;;;;;;;12.66;45.73;100898.25;679585;29;1423;-85
2024/01/23 00:07:42;;;;;;;5.33;2.00;;;;;;;12.75;45.15;100869.66;674190;29;1670;-85
2024/01/23 00:08:03;;;;;;;8.65;2.10;;;;;;;12.78;45.13;100867.09;671355;29;1286;-84
2024/01/23 00:08:24;;;;;;;8.68;2.05;;;;;;;12.92;45.11;100871.72;672051;29;1191;-84
2024/01/23 00:08:45;;;;;;;10.40;2.13;;;;;;;12.96;45.24;100884.06;675819;29;1473;-85
2024/01/23 00:09:05;;;;;;;9.15;2.10;;;;;;;12.98;44.82;100867.50;677963;29;1089;-85
2024/01/23 00:09:27;;;;;;;10.05;2.70;;;;;;;12.95;45.10;100871.81;679790;29;1326;-85
2024/01/23 00:09:47;;;;;;;9.52;2.83;;;;;;;12.82;45.59;100882.03;676946;29;1452;-85
2024/01/23 00:10:08;;;;;;;14.48;3.10;;;;;;;12.93;45.47;100881.34;679623;29;1632;-85
2024/01/23 00:10:29;;;;;;;17.05;2.60;;;;;;;12.86;45.78;100883.84;679792;29;1188;-85
2024/01/23 00:10:52;;;;;;;18.42;2.55;;;;;;;12.81;45.62;100869.78;682073;28;1642;-86
2024/01/23 00:11:13;;;;;;;9.57;2.10;;;;;;;12.74;45.97;100858.28;679734;29;1190;-86
2024/01/23 00:11:33;;;;;;;8.90;2.00;;;;;;;12.73;45.98;100876.59;682435;29;1316;-85
2024/01/23 00:11:54;;;;;;;8.10;2.10;;;;;;;12.69;45.50;100869.53;677312;29;941;-86
2024/01/23 00:12:17;;;;;;;6.78;2.03;;;;;;;12.56;46.02;100874.50;679812;29;1367;-85
2024/01/23 00:12:38;;;;;;;10.30;2.58;;;;;;;12.45;46.11;100878.63;679534;29;1591;-86
2024/01/23 00:12:58;;;;;;;7.68;2.53;;;;;;;12.30;47.16;100881.78;679853;29;790;-86
2024/01/23 00:13:19;;;;;;;7.10;2.58;;;;;;;12.20;47.50;100876.34;676081;29;1119;-85
2024/01/23 00:13:41;;;;;;;3.70;2.07;;;;;;;12.27;46.92;100889.53;676649;29;1460;-85
2024/01/23 00:14:03;;;;;;;5.15;2.10;;;;;;;12.12;47.21;100890.97;677090;29;1704;-85
2024/01/23 00:14:23;;;;;;;11.70;2.50;;;;;;;12.04;47.77;100885.56;674647;29;1473;-84
2024/01/23 00:14:47;;;;;;;12.70;2.70;;;;;;;12.09;47.66;100892.63;676540;29;1473;-84
2024/01/23 00:15:08;;;;;;;11.95;2.60;;;;;;;12.16;47.47;100889.31;679621;29;1061;-85
2024/01/23 00:15:28;;;;;;;9.32;2.30;;;;;;;12.16;47.41;100884.09;677192;29;1272;-85
2024/01/23 00:15:49;;;;;;;10.60;2.30;;;;;;;12.22;47.57;100897.28;679016;29;1428;-84
2024/01/23 00:16:10;;;;;;;5.82;1.92;;;;;;;12.16;47.65;100863.16;675445;29;1221;-85
2024/01/23 00:16:30;;;;;;;5.97;2.00;;;;;;;12.20;47.57;100880.69;677195;29;1029;-85
2024/01/23 00:16:51;;;;;;;5.20;1.90;;;;;;;12.07;48.08;100875.16;674312;29;1607;-84
2024/01/23 00:17:12;;;;;;;8.23;2.17;;;;;;;12.15;47.76;100879.69;677105;29;1161;-85
2024/01/23 00:17:32;;;;;;;8.38;2.10;;;;;;;12.09;48.28;100884.78;677084;29;1060;-86
2024/01/23 00:17:53;;;;;;;7.67;2.00;;;;;;;12.24;48.05;100890.38;676942;29;1469;-84
2024/01/23 00:18:14;;;;;;;6.25;2.08;;;;;;;12.24;47.81;100873.78;676579;29;1191;-85
2024/01/23 00:18:34;;;;;;;7.18;2.40;;;;;;;12.30;47.42;100877.41;676989;29;1483;-84
2024/01/23 00:18:55;;;;;;;7.10;2.80;;;;;;;12.13;48.20;100878.78;677244;29;1033;-84
2024/01/23 00:19:16;;;;;;;4.90;2.63;;;;;;;12.20;48.03;100870.22;677084;29;1012;-85
2024/01/23 00:19:36;;;;;;;4.72;2.40;;;;;;;12.29;47.89;100870.41;679610;29;1475;-85
2024/01/23 00:19:57;;;;;;;10.60;2.53;;;;;;;12.38;47.76;100881.94;677205;29;777;-83
2024/01/23 00:20:18;;;;;;;12.57;2.53;;;;;;;12.36;47.55;100886.25;677215;29;1261;-84
2024/01/23 00:20:38;;;;;;;12.32;2.72;;;;;;;12.36;47.67;100873.19;679425;29;1491;-85
2024/01/23 00:21:00;;;;;;;6.82;2.58;;;;;;;12.29;47.72;100872.16;682412;29;1251;-84
2024/01/23 00:21:21;;;;;;;10.38;2.90;;;;;;;12.27;48.04;100871.22;682328;29;1234;-85
2024/01/23 00:21:41;;;;;;;12.93;2.63;;;;;;;12.20;48.07;100870.22;680485;28;1592;-84
2024/01/23 00:22:02;;;;;;;12.93;2.63;;;;;;;12.28;48.07;100883.50;677185;29;1148;-85
2024/01/23 00:22:23;;;;;;;9.75;2.10;;;;;;;12.25;48.32;100894.75;679868;29;1066;-85
2024/01/23 00:22:44;;;;;;;8.80;2.15;;;;;;;12.21;47.94;100895.53;679315;29;1484;-84
2024/01/23 00:23:04;;;;;;;9.13;2.27;;;;;;;12.27;47.97;100882.59;676998;29;1160;-84
2024/01/23 00:23:25;;;;;;;6.50;2.20;;;;;;;12.12;48.38;100887.47;677085;29;1271;-85
2024/01/23 00:23:45;;;;;;;6.30;2.40;;;;;;;12.23;48.13;100875.50;676948;29;1590;-85
2024/01/23 00:24:06;;;;;;;5.53;2.30;;;;;;;12.30;47.72;100905.34;677548;29;1125;-84
2024/01/23 00:24:27;;;;;;;5.13;2.20;;;;;;;12.24;48.08;100887.78;680464;29;1092;-84
2024/01/23 00:24:47;;;;;;;4.13;2.10;;;;;;;12.36;47.64;100896.72;675741;29;1531;-85
2024/01/23 00:25:08;;;;;;;7.23;2.70;;;;;;;12.24;47.95;100902.56;677239;29;1120;-85
2024/01/23 00:25:29;;;;;;;9.02;3.08;;;;;;;12.20;48.18;100888.53;674594;29;961;-84
2024/01/23 00:25:51;;;;;;;7.85;2.72;;;;;;;12.20;48.09;100930.38;671741;29;1632;-84
2024/01/23 00:26:12;;;;;;;6.13;2.13;;;;;;;12.21;48.17;100900.75;674651;29;1076;-85
2024/01/23 00:26:32;;;;;;;3.72;1.60;;;;;;;12.21;48.30;100882.44;674626;29;991;-85
2024/01/23 00:26:53;;;;;;;3.92;1.83;;;;;;;12.32;47.92;100904.53;674363;29;1234;-84
2024/01/23 00:27:14;;;;;;;6.50;2.90;;;;;;;12.31;48.00;100900.13;674585;29;1272;-84
2024/01/23 00:27:34;;;;;;;7.00;3.08;;;;;;;12.45;47.98;100908.31;677187;29;998;-84
2024/01/23 00:27:55;;;;;;;7.50;2.80;;;;;;;12.44;47.44;100903.91;677216;29;1208;-84
2024/01/23 00:28:16;;;;;;;6.38;2.20;;;;;;;12.42;47.52;100897.75;676570;29;1629;-84
2024/01/23 00:28:36;;;;;;;8.65;2.15;;;;;;;12.45;47.35;100907.41;676922;29;1497;-84
2024/01/23 00:28:57;;;;;;;9.90;2.30;;;;;;;12.50;47.21;100905.78;677162;29;753;-84
2024/01/23 00:29:18;;;;;;;8.45;1.95;;;;;;;12.50;47.38;100908.41;677253;29;1109;-85
2024/01/23 00:29:38;;;;;;;8.07;2.55;;;;;;;12.65;47.43;100920.06;676823;29;1626;-84
2024/01/23 00:29:59;;;;;;;11.80;2.83;;;;;;;12.67;47.23;100918.34;677188;29;872;-85
2024/01/23 00:30:20;;;;;;;15.60;3.00;;;;;;;12.61;47.67;100899.03;680036;29;1026;-85
2024/01/23 00:30:40;;;;;;;14.77;2.70;;;;;;;12.60;47.32;100928.69;673647;29;1591;-84
2024/01/23 00:31:01;;;;;;;12.98;2.95;;;;;;;12.54;47.62;100905.00;677186;29;1394;-83
2024/01/23 00:31:22;;;;;;;11.23;3.20;;;;;;;12.46;47.61;100898.69;674547;29;1332;-84
2024/01/23 00:31:42;;;;;;;11.90;2.97;;;;;;;12.41;47.78;100916.91;674288;29;1630;-84
2024/01/23 00:32:04;;;;;;;11.65;2.45;;;;;;;12.31;47.75;100918.44;674516;29;1196;-86
2024/01/23 00:32:30;;;;;;;11.23;2.40;;;;;;;12.22;47.80;100923.44;674532;29;1313;-85
2024/01/23 00:32:50;;;;;;;11.00;2.60;;;;;;;12.05;48.06;100907.38;676801;29;1557;-84
2024/01/23 00:33:11;;;;;;;8.50;2.20;;;;;;;12.12;47.85;100918.88;677157;29;1169;-84
2024/01/23 00:33:32;;;;;;;12.10;2.00;;;;;;;12.08;48.32;100928.38;677075;29;1310;-85
2024/01/23 00:33:52;;;;;;;11.10;2.07;;;;;;;11.99;48.87;100929.00;676828;29;1500;-84
2024/01/23 00:34:13;;;;;;;8.10;2.00;;;;;;;11.94;48.47;100951.56;674453;29;1329;-84
2024/01/23 00:34:34;;;;;;;3.88;2.10;;;;;;;11.83;49.00;100947.78;671955;29;1316;-84
2024/01/23 00:34:54;;;;;;;3.08;1.95;;;;;;;11.79;49.29;100937.25;676888;29;1441;-85
2024/01/23 00:35:15;;;;;;;2.80;1.77;;;;;;;11.67;49.30;100942.16;679827;29;1064;-85
2024/01/23 00:35:36;;;;;;;3.47;1.63;;;;;;;11.66;49.66;100924.69;684576;28;1517;-83
2024/01/23 00:35:56;;;;;;;7.57;2.27;;;;;;;11.76;49.45;100923.22;677141;29;888;-83
2024/01/23 00:36:17;;;;;;;8.00;2.40;;;;;;;11.86;49.13;100932.19;679802;29;1011;-84
2024/01/23 00:36:37;;;;;;;10.27;2.78;;;;;;;11.87;48.88;100933.97;676793;29;1595;-84
2024/01/23 00:36:59;;;;;;;8.75;2.30;;;;;;;11.77;49.21;100933.72;677136;29;1218;-83
2024/01/23 00:37:19;;;;;;;10.63;2.55;;;;;;;11.75;49.59;100948.47;671670;29;1948;-83
2024/01/23 00:37:40;;;;;;;8.00;2.35;;;;;;;11.74;49.71;100953.69;674308;29;1519;-83
2024/01/23 00:38:01;;;;;;;6.10;2.80;;;;;;;11.73;49.81;100952.78;676403;29;1136;-83
2024/01/23 00:38:21;;;;;;;4.70;2.60;;;;;;;11.65;49.98;100943.84;677135;29;1071;-83
2024/01/23 00:38:42;;;;;;;6.00;2.63;;;;;;;11.70;49.89;100937.03;674195;29;1527;-83
2024/01/23 00:39:02;;;;;;;6.10;2.40;;;;;;;11.61;50.25;100952.44;674434;29;1167;-83
2024/01/23 00:39:23;;;;;;;5.20;1.92;;;;;;;11.62;50.28;100939.38;676452;29;1200;-83
2024/01/23 00:39:45;;;;;;;2.72;1.50;;;;;;;11.56;49.97;100933.13;678323;29;1683;-84
2024/01/23 00:40:07;;;;;;;3.20;1.77;;;;;;;11.59;50.25;100939.31;677214;29;1362;-85
2024/01/23 00:40:27;;;;;;;7.78;2.33;;;;;;;11.56;50.14;100935.75;677137;29;1396;-84
2024/01/23 00:40:48;;;;;;;10.13;2.63;;;;;;;11.57;50.18;100937.50;674867;29;1535;-84
2024/01/23 00:41:09;;;;;;;9.50;2.58;;;;;;;11.62;50.14;100943.75;674574;29;1208;-84
2024/01/23 00:41:31;;;;;;;5.50;2.37;;;;;;;11.58;50.25;100931.44;677219;29;896;-84
2024/01/23 00:41:51;;;;;;;4.90;2.33;;;;;;;11.46;50.61;100938.13;674758;29;1583;-83
2024/01/23 00:42:12;;;;;;;5.33;2.23;;;;;;;11.39;50.89;100941.41;673790;29;1553;-84
2024/01/23 00:42:33;;;;;;;8.40;2.33;;;;;;;11.49;50.72;100937.31;674462;29;1306;-85
2024/01/23 00:42:54;;;;;;;8.48;2.30;;;;;;;11.45;50.77;100930.22;676166;29;1517;-83
2024/01/23 00:43:15;;;;;;;9.00;2.10;;;;;;;11.59;50.58;100938.41;674510;29;1261;-83
2024/01/23 00:43:35;;;;;;;4.68;1.77;;;;;;;11.57;50.81;100938.41;674543;29;1038;-84
2024/01/23 00:43:56;;;;;;;4.53;1.90;;;;;;;11.58;50.68;100937.56;674501;29;769;-84
2024/01/23 00:44:16;;;;;;;4.78;2.08;;;;;;;11.64;50.66;100937.72;674497;29;932;-84
2024/01/23 00:44:37;;;;;;;9.73;2.53;;;;;;;11.67;50.69;100918.63;674427;29;1610;-83
2024/01/23 00:44:58;;;;;;;10.18;2.70;;;;;;;11.77;50.40;100933.72;674791;29;1679;-85
2024/01/23 00:45:19;;;;;;;9.77;2.70;;;;;;;11.78;50.40;100929.38;676912;29;1429;-84
2024/01/23 00:45:39;;;;;;;6.30;2.40;;;;;;;11.76;50.43;100923.22;676654;29;1505;-83
2024/01/23 00:46:00;;;;;;;8.23;2.50;;;;;;;11.77;50.59;100941.56;677255;29;757;-83
2024/01/23 00:46:21;;;;;;;7.28;2.50;;;;;;;11.64;50.53;100947.28;677052;29;1196;-83
2024/01/23 00:46:42;;;;;;;7.97;2.80;;;;;;;11.68;50.32;100937.81;679545;29;1497;-83
2024/01/23 00:47:02;;;;;;;6.22;2.85;;;;;;;11.66;50.74;100945.63;679631;29;1307;-83
2024/01/23 00:47:23;;;;;;;5.20;2.90;;;;;;;11.59;51.04;100935.81;677227;29;1128;-83
2024/01/23 00:47:43;;;;;;;7.07;2.90;;;;;;;11.61;50.96;100934.13;674244;29;1533;-83
2024/01/23 00:48:04;;;;;;;6.80;2.67;;;;;;;11.64;50.78;100939.44;676596;29;1048;-84
2024/01/23 00:48:25;;;;;;;10.70;2.53;;;;;;;11.76;50.89;100954.59;679734;29;1063;-84
2024/01/23 00:48:45;;;;;;;9.43;2.50;;;;;;;11.64;51.05;100949.91;679336;29;1520;-83
2024/01/23 00:49:06;;;;;;;13.30;2.23;;;;;;;11.54;51.13;100958.34;677135;29;1398;-83
2024/01/23 00:49:26;;;;;;;9.68;2.25;;;;;;;11.60;51.21;100963.72;676007;29;1633;-83
2024/01/23 00:49:47;;;;;;;10.80;2.22;;;;;;;11.68;51.20;100946.53;676952;29;1574;-84
2024/01/23 00:50:08;;;;;;;7.20;2.30;;;;;;;11.67;50.86;100955.22;677265;29;1100;-84
2024/01/23 00:50:28;;;;;;;6.55;2.00;;;;;;;11.69;50.96;100966.63;674318;29;1319;-83
2024/01/23 00:50:49;;;;;;;6.40;2.03;;;;;;;11.57;51.24;100961.03;675863;29;1572;-83
2024/01/23 00:51:09;;;;;;;6.13;1.90;;;;;;;11.57;51.31;100955.78;672013;29;1287;-83
2024/01/23 00:51:30;;;;;;;9.45;2.15;;;;;;;11.62;51.50;100957.69;675440;29;1312;-83
2024/01/23 00:51:50;;;;;;;9.85;2.05;;;;;;;11.75;51.43;100964.16;679363;29;1421;-83
2024/01/23 00:52:11;;;;;;;10.50;2.40;;;;;;;11.71;51.23;100962.31;679750;29;1254;-84
2024/01/23 00:52:32;;;;;;;7.15;2.38;;;;;;;11.84;51.18;100970.47;679863;29;1046;-83
2024/01/23 00:52:53;;;;;;;4.95;2.53;;;;;;;11.72;51.01;100961.47;677292;29;1641;-83
2024/01/23 00:53:13;;;;;;;4.57;2.50;;;;;;;11.78;51.12;100953.78;672196;29;1670;-84
2024/01/23 00:53:35;;;;;;;7.05;2.60;;;;;;;11.78;50.99;100960.75;671732;29;1210;-83
2024/01/23 00:53:56;;;;;;;8.57;2.75;;;;;;;11.85;51.02;100956.56;671505;29;1480;-84
2024/01/23 00:54:16;;;;;;;9.90;2.80;;;;;;;11.98;50.94;100969.09;674303;29;1773;-84
2024/01/23 00:54:37;;;;;;;8.23;2.53;;;;;;;11.99;51.02;100968.25;676636;29;1533;-82
2024/01/23 00:55:02;;;;;;;9.40;2.53;;;;;;;11.99;50.91;100965.63;679664;29;1345;-84
2024/01/23 00:55:23;;;;;;;10.40;2.80;;;;;;;11.93;50.92;100966.38;679785;29;1030;-84
2024/01/23 00:55:43;;;;;;;7.93;2.50;;;;;;;11.98;50.90;100970.84;677875;29;1717;-84
2024/01/23 00:56:04;;;;;;;5.85;2.22;;;;;;;11.98;50.85;100968.22;677979;29;1030;-83
2024/01/23 00:56:25;;;;;;;3.45;1.77;;;;;;;12.03;50.57;100980.56;679732;29;1295;-83
2024/01/23 00:56:45;;;;;;;3.67;1.73;;;;;;;11.92;50.64;100959.38;681755;28;1640;-83
2024/01/23 00:57:06;;;;;;;7.78;2.28;;;;;;;11.94;50.70;100967.25;677117;29;1277;-84
2024/01/23 00:57:27;;;;;;;10.93;2.60;;;;;;;11.93;50.64;100974.22;674456;29;1912;-84
2024/01/23 00:57:47;;;;;;;10.32;2.85;;;;;;;12.02;50.86;100976.19;676781;29;1495;-83
2024/01/23 00:58:08;;;;;;;10.13;2.50;;;;;;;12.03;50.75;100967.50;673948;29;1357;-84
2024/01/23 00:58:29;;;;;;;7.60;2.30;;;;;;;12.09;50.49;100973.72;679746;29;1289;-84
2024/01/23 00:58:49;;;;;;;8.68;2.70;;;;;;;12.12;50.38;100977.31;679374;29;1519;-83
2024/01/23 00:59:12;;;;;;;7.13;2.83;;;;;;;12.20;50.55;100967.03;675543;29;1295;-83
2024/01/23 00:59:32;;;;;;;9.60;2.95;;;;;;;12.22;50.57;100985.38;677095;29;1301;-84
2024/01/23 00:59:53;;;;;;;9.20;2.55;;;;;;;12.07;50.65;100982.41;678846;29;1460;-84
2024/01/23 01:00:14;;;;;;;12.07;2.30;;;;;;;12.18;50.63;100976.56;679821;29;999;-84
2024/01/23 01:00:35;;;;;;;14.18;2.47;;;;;;;12.20;50.72;100974.88;679723;29;965;-83
2024/01/23 01:00:56;;;;;;;9.63;2.58;;;;;;;12.20;50.76;100974.88;679421;29;1476;-83
2024/01/23 01:01:16;;;;;;;8.33;2.83;;;;;;;12.14;50.50;100983.47;679726;29;942;-84
2024/01/23 01:01:37;;;;;;;9.20;2.70;;;;;;;12.16;50.31;100973.03;677228;29;1483;-83
2024/01/23 01:01:58;;;;;;;9.38;2.40;;;;;;;12.21;50.48;100981.88;679691;29;1302;-84
2024/01/23 01:02:19;;;;;;;9.68;2.40;;;;;;;12.17;50.61;101006.19;677117;29;1074;-84
2024/01/23 01:02:39;;;;;;;6.32;2.50;;;;;;;12.07;50.29;101021.63;676712;29;1647;-85
2024/01/23 01:03:00;;;;;;;6.40;2.40;;;;;;;12.12;50.65;100992.09;677277;29;748;-83
2024/01/23 01:03:20;;;;;;;10.00;2.40;;;;;;;12.07;50.54;101005.06;677086;29;1279;-84
2024/01/23 01:03:41;;;;;;;13.47;2.57;;;;;;;12.08;50.49;100988.53;676205;29;1484;-84
2024/01/23 01:04:02;;;;;;;14.05;2.70;;;;;;;12.07;50.40;100979.78;677086;29;1289;-84
2024/01/23 01:04:23;;;;;;;9.77;2.53;;;;;;;12.03;50.79;100988.41;676528;29;1103;-84
2024/01/23 01:04:46;;;;;;;9.07;2.45;;;;;;;11.93;50.70;100997.75;676542;29;1549;-84
2024/01/23 01:05:07;;;;;;;8.60;2.75;;;;;;;11.91;50.46;100991.59;677619;29;1053;-83
2024/01/23 01:05:28;;;;;;;5.47;2.33;;;;;;;11.89;50.88;100989.78;680187;29;1228;-83
2024/01/23 01:05:48;;;;;;;10.27;2.70;;;;;;;11.86;50.86;100987.97;680731;29;1553;-84
2024/01/23 01:06:09;;;;;;;10.52;2.60;;;;;;;11.77;50.63;100980.78;680178;29;1292;-83
2024/01/23 01:06:30;;;;;;;11.30;2.70;;;;;;;11.84;50.97;100996.63;678084;29;1194;-85
2024/01/23 01:06:50;;;;;;;9.10;2.38;;;;;;;11.77;51.05;100990.34;679909;29;1539;-82
2024/01/23 01:07:11;;;;;;;9.27;2.42;;;;;;;11.76;50.82;100984.25;680117;29;1304;-84
2024/01/23 01:07:31;;;;;;;8.18;2.38;;;;;;;11.81;51.04;101000.06;677574;29;1075;-84
2024/01/23 01:07:52;;;;;;;7.90;2.37;;;;;;;11.72;50.98;101008.53;674551;29;1567;-83
2024/01/23 01:08:13;;;;;;;6.65;2.13;;;;;;;11.75;51.03;101015.56;679600;29;1000;-84
2024/01/23 01:08:33;;;;;;;6.37;2.23;;;;;;;11.71;50.84;100996.31;680193;29;1387;-84
2024/01/23 01:08:54;;;;;;;11.07;2.30;;;;;;;11.75;50.99;100987.69;677109;29;1496;-84
2024/01/23 01:09:14;;;;;;;12.38;2.22;;;;;;;11.70;50.73;100986.69;680141;29;1182;-84
2024/01/23 01:09:35;;;;;;;13.00;2.10;;;;;;;11.74;50.66;101021.66;679298;29;994;-84
2024/01/23 01:09:55;;;;;;;7.20;2.10;;;;;;;11.69;50.90;100982.31;677250;29;1348;-84
2024/01/23 01:10:16;;;;;;;5.20;2.00;;;;;;;11.78;50.86;100999.97;677422;29;1010;-84
2024/01/23 01:10:37;;;;;;;5.60;2.17;;;;;;;11.72;50.91;100989.31;674610;29;1476;-84
2024/01/23 01:10:57;;;;;;;5.22;2.25;;;;;;;11.76;50.90;100986.88;672534;29;1645;-84
2024/01/23 01:11:18;;;;;;;5.45;2.22;;;;;;;11.81;50.63;100991.31;671292;29;1230;-84
2024/01/23 01:11:38;;;;;;;5.73;2.13;;;;;;;11.81;50.70;100986.97;672333;29;1611;-84
2024/01/23 01:11:59;;;;;;;6.20;2.20;;;;;;;11.70;50.91;100986.69;672432;29;765;-84
2024/01/23 01:12:20;;;;;;;11.05;2.30;;;;;;;11.69;51.17;100997.09;672599;29;1115;-83
2024/01/23 01:12:40;;;;;;;10.50;2.30;;;;;;;11.56;51.66;100990.63;674954;29;1591;-83
2024/01/23 01:13:01;;;;;;;9.93;2.30;;;;;;;11.52;51.14;100985.31;679963;29;767;-84
2024/01/23 01:13:21;;;;;;;4.20;2.00;;;;;;;11.59;51.54;100991.59;682628;29;1161;-84
2024/01/23 01:13:42;;;;;;;3.15;1.77;;;;;;;11.60;51.51;100997.69;682604;29;1579;-84
2024/01/23 01:14:03;;;;;;;3.55;1.80;;;;;;;11.69;51.65;101005.84;682703;29;1306;-84
2024/01/23 01:14:24;;;;;;;5.47;2.20;;;;;;;11.70;51.56;101010.22;682868;28;1325;-83
2024/01/23 01:14:44;;;;;;;5.70;2.20;;;;;;;11.58;52.07;100992.44;682122;28;1441;-84
2024/01/23 01:15:05;;;;;;;5.83;2.27;;;;;;;11.59;51.67;100993.31;680110;29;1205;-84
2024/01/23 01:15:26;;;;;;;5.25;2.47;;;;;;;11.61;51.93;100991.66;680059;29;1520;-84
2024/01/23 01:15:46;;;;;;;4.72;2.40;;;;;;;11.66;51.70;101003.13;674672;29;1540;-83
2024/01/23 01:16:07;;;;;;;4.25;2.40;;;;;;;11.57;51.02;101001.13;677539;29;1011;-84
2024/01/23 01:16:29;;;;;;;4.40;2.10;;;;;;;11.68;51.20;100998.81;677589;29;1113;-84
2024/01/23 01:16:50;;;;;;;4.10;1.98;;;;;;;11.74;51.56;100995.50;677350;29;1562;-86
2024/01/23 01:17:11;;;;;;;5.07;1.77;;;;;;;11.78;51.46;100985.16;680074;29;1288;-84
2024/01/23 01:17:32;;;;;;;6.23;2.20;;;;;;;11.82;51.23;100998.31;677412;29;1976;-84
2024/01/23 01:17:52;;;;;;;7.05;2.33;;;;;;;11.81;50.73;100999.16;679502;29;1501;-84
2024/01/23 01:18:13;;;;;;;6.47;2.42;;;;;;;11.82;51.29;100998.31;677770;29;1223;-83
2024/01/23 01:18:36;;;;;;;6.78;2.40;;;;;;;11.77;51.25;100993.88;680180;29;1704;-84
2024/01/23 01:18:58;;;;;;;4.45;2.03;;;;;;;11.83;51.01;100995.75;680024;29;1419;-84
2024/01/23 01:19:18;;;;;;;4.70;2.00;;;;;;;11.76;50.94;101010.41;680115;29;1105;-84
2024/01/23 01:19:39;;;;;;;6.93;2.30;;;;;;;11.83;51.89;100994.84;677272;29;1551;-84
2024/01/23 01:20:00;;;;;;;8.15;2.40;;;;;;;11.86;50.92;101008.03;672432;29;844;-84
2024/01/23 01:20:20;;;;;;;8.40;2.53;;;;;;;11.82;51.02;100998.31;674860;29;1196;-83
2024/01/23 01:20:43;;;;;;;6.10;2.30;;;;;;;11.75;51.09;100998.13;677829;29;1522;-83
2024/01/23 01:21:04;;;;;;;6.20;2.47;;;;;;;11.75;50.88;101013.81;674919;29;1268;-84
2024/01/23 01:21:24;;;;;;;4.40;2.28;;;;;;;11.84;50.87;101017.53;672381;29;1107;-84
2024/01/23 01:21:45;;;;;;;4.50;2.10;;;;;;;11.75;50.10;101008.59;677297;29;1603;-84
2024/01/23 01:22:05;;;;;;;8.82;2.28;;;;;;;11.91;50.74;101011.63;675374;29;1162;-84
2024/01/23 01:22:26;;;;;;;12.68;2.58;;;;;;;11.89;50.95;101000.25;677466;29;1183;-83
2024/01/23 01:22:46;;;;;;;17.60;3.03;;;;;;;12.00;51.22;101024.06;677254;29;1489;-84
2024/01/23 01:23:07;;;;;;;13.18;2.85;;;;;;;11.80;51.07;101027.03;674659;29;1197;-84
2024/01/23 01:23:28;;;;;;;8.20;2.33;;;;;;;11.82;51.51;101007.06;672320;29;1007;-84
2024/01/23 01:23:48;;;;;;;4.73;1.80;;;;;;;11.86;50.72;101027.19;674642;29;1502;-84
2024/01/23 01:24:09;;;;;;;4.07;1.77;;;;;;;11.87;51.58;100999.31;675649;29;1042;-84
2024/01/23 01:24:29;;;;;;;3.67;1.83;;;;;;;11.83;51.28;101028.84;674925;29;975;-84
2024/01/23 01:24:50;;;;;;;6.10;2.30;;;;;;;11.96;51.65;101024.81;677412;29;1525;-83
2024/01/23 01:25:11;;;;;;;7.35;2.60;;;;;;;11.90;51.20;101034.28;674928;29;1377;-84
2024/01/23 01:25:31;;;;;;;6.90;2.70;;;;;;;11.92;50.77;101026.47;680116;29;1127;-84
2024/01/23 01:25:52;;;;;;;4.30;2.20;;;;;;;11.94;50.79;101011.72;678128;29;1079;-83
2024/01/23 01:26:12;;;;;;;3.88;1.83;;;;;;;12.03;50.86;101013.66;679299;29;1402;-84
2024/01/23 01:26:33;;;;;;;6.30;2.13;;;;;;;11.91;50.17;101025.59;680125;29;1174;-84
2024/01/23 01:26:53;;;;;;;9.02;2.80;;;;;;;12.05;50.83;101028.56;677464;29;1461;-84
2024/01/23 01:27:14;;;;;;;10.03;3.23;;;;;;;11.90;50.95;101041.25;677572;29;955;-84
2024/01/23 01:27:35;;;;;;;8.10;3.00;;;;;;;11.90;51.76;101030.78;672315;29;1502;-83
2024/01/23 01:27:55;;;;;;;5.20;2.67;;;;;;;11.95;51.01;101013.50;674360;29;1508;-84
2024/01/23 01:28:16;;;;;;;5.17;2.63;;;;;;;11.97;51.71;101035.34;674376;29;1086;-85
2024/01/23 01:28:37;;;;;;;4.47;2.35;;;;;;;11.97;51.74;101024.88;674910;29;1315;-84
2024/01/23 01:29:29;;;;;;;3.30;1.92;;;;;;;12.04;51.48;101041.63;672520;29;1313;-84
2024/01/23 01:29:50;;;;;;;12.63;2.40;;;;;;;12.03;51.56;101045.97;672971;29;1596;-84
2024/01/23 01:30:11;;;;;;;15.68;2.45;;;;;;;11.85;51.79;101029.78;672318;29;1154;-84
2024/01/23 01:30:31;;;;;;;12.73;2.42;;;;;;;11.88;51.50;101035.09;672375;29;995;-84
2024/01/23 01:30:52;;;;;;;7.60;2.10;;;;;;;11.95;52.06;101064.91;680538;29;1525;-83
2024/01/23 01:31:13;;;;;;;6.65;2.33;;;;;;;11.87;51.75;101049.00;680167;29;1224;-84
2024/01/23 01:31:33;;;;;;;6.90;2.13;;;;;;;11.87;51.66;101043.78;680084;29;1070;-85
2024/01/23 01:31:54;;;;;;;7.60;2.40;;;;;;;11.71;52.86;101048.59;679907;29;1499;-84
2024/01/23 01:32:15;;;;;;;5.90;2.47;;;;;;;11.83;52.85;101041.91;680242;29;1040;-84
2024/01/23 01:32:35;;;;;;;5.20;2.60;;;;;;;11.89;52.26;101048.22;680196;29;1064;-84
2024/01/23 01:32:56;;;;;;;4.20;2.10;;;;;;;11.84;52.31;101046.28;680168;29;1468;-84
2024/01/23 01:33:18;;;;;;;5.10;1.77;;;;;;;11.83;51.68;101047.16;680127;29;1260;-83
2024/01/23 01:33:38;;;;;;;7.38;2.10;;;;;;;11.78;52.13;101033.94;677267;29;1568;-85
2024/01/23 01:33:59;;;;;;;7.55;2.35;;;;;;;11.70;51.78;101031.13;677503;29;1284;-84
2024/01/23 01:34:20;;;;;;;7.72;2.55;;;;;;;11.72;51.64;101037.28;672281;29;990;-83
2024/01/23 01:34:41;;;;;;;7.20;2.47;;;;;;;11.65;51.07;101056.25;674928;29;1473;-84
2024/01/23 01:35:01;;;;;;;6.20;2.50;;;;;;;11.61;50.77;101036.09;678005;29;1071;-83
2024/01/23 01:35:22;;;;;;;6.38;2.50;;;;;;;11.63;51.50;101047.47;677577;29;1105;-83
2024/01/23 01:35:43;;;;;;;14.63;2.50;;;;;;;11.69;51.43;101039.84;678217;29;1601;-84
2024/01/23 01:36:07;;;;;;;14.75;2.35;;;;;;;11.60;52.03;101029.97;679519;29;1114;-84
2024/01/23 01:36:28;;;;;;;13.73;2.00;;;;;;;11.62;52.06;101049.19;674819;29;1268;-83
2024/01/23 01:36:48;;;;;;;5.10;2.00;;;;;;;11.55;51.78;101035.91;677480;29;2173;-84
2024/01/23 01:37:09;;;;;;;8.70;2.30;;;;;;;11.48;51.48;101046.19;677258;29;1653;-84
2024/01/23 01:37:29;;;;;;;7.50;2.40;;;;;;;11.39;50.48;101030.25;678038;29;1911;-84
2024/01/23 01:37:50;;;;;;;7.67;2.40;;;;;;;11.44;50.80;101046.91;676321;29;1597;-83
2024/01/23 01:38:11;;;;;;;4.53;2.10;;;;;;;11.35;51.48;101033.59;676794;29;1198;-84
2024/01/23 01:38:31;;;;;;;6.18;2.28;;;;;;;11.46;51.50;101050.47;674930;29;1000;-83
2024/01/23 01:38:52;;;;;;;6.30;2.10;;;;;;;11.47;51.72;101041.81;672749;29;1533;-84
2024/01/23 01:39:14;;;;;;;5.10;2.10;;;;;;;11.52;51.31;101048.06;675733;29;1382;-83
2024/01/23 01:39:35;;;;;;;5.10;2.20;;;;;;;11.45;50.59;101053.03;680092;29;1112;-83
2024/01/23 01:39:55;;;;;;;8.00;2.30;;;;;;;11.55;51.06;101051.59;679935;29;1495;-84